Time;durP1;ratioP1;P1;durP2;ratioP2;P2;SDS_P1;SDS_P2;PMS_P1;PMS_P2;Temp;Humidity;BMP_temperature;BMP_pressure;BME280_temperature;BME280_humidity;BME280_pressure;Samples;Min_cycle;Max_cycle;Signal;HPM_P1;HPM_P2
2022/03/24 00:00:37;;;;;;;40.30;32.42;;;6.70;99.90;;;;;;5090349;28;20096;-74
2022/03/24 00:03:04;;;;;;;39.80;35.40;;;6.80;99.90;;;;;;5110004;27;20043;-73
2022/03/24 00:05:30;;;;;;;41.60;34.85;;;6.80;99.90;;;;;;5084621;28;20097;-73
2022/03/24 00:07:59;;;;;;;40.63;34.88;;;6.80;99.90;;;;;;5065361;28;20047;-73
2022/03/24 00:10:25;;;;;;;36.92;32.65;;;6.90;99.90;;;;;;5086850;28;20043;-74
2022/03/24 00:12:51;;;;;;;39.97;34.85;;;6.80;99.90;;;;;;5086581;28;20054;-73
2022/03/24 00:15:18;;;;;;;39.47;34.63;;;6.90;99.90;;;;;;5053948;28;20134;-74
2022/03/24 00:17:44;;;;;;;41.90;34.97;;;6.80;99.90;;;;;;5051733;28;20051;-73
2022/03/24 00:20:12;;;;;;;39.55;35.45;;;6.70;99.90;;;;;;5083868;28;20048;-74
2022/03/24 00:22:38;;;;;;;40.53;36.05;;;6.70;99.90;;;;;;5086285;28;20512;-74
2022/03/24 00:25:05;;;;;;;39.90;33.80;;;6.60;99.90;;;;;;5068811;28;20051;-73
2022/03/24 00:27:31;;;;;;;38.15;32.67;;;6.50;99.90;;;;;;5086353;28;20043;-74
2022/03/24 00:29:56;;;;;;;36.70;31.50;;;6.50;99.90;;;;;;5087305;28;20043;-73
2022/03/24 00:32:22;;;;;;;38.40;33.38;;;6.40;99.90;;;;;;5070986;28;20047;-73
2022/03/24 00:34:48;;;;;;;38.40;34.17;;;6.40;99.90;;;;;;5087469;28;20533;-73
2022/03/24 00:37:15;;;;;;;38.72;33.15;;;6.40;99.90;;;;;;5070109;28;20043;-73
2022/03/24 00:39:41;;;;;;;36.60;32.70;;;6.40;99.90;;;;;;5087235;28;20059;-73
2022/03/24 00:42:10;;;;;;;42.13;33.95;;;6.30;99.90;;;;;;5086726;28;20056;-73
2022/03/24 00:44:36;;;;;;;39.40;34.30;;;6.30;99.90;;;;;;5103684;28;20097;-73
2022/03/24 00:47:03;;;;;;;43.00;36.97;;;6.20;99.90;;;;;;5052688;28;20083;-73
2022/03/24 00:49:29;;;;;;;41.83;33.78;;;6.10;99.90;;;;;;5069345;28;20042;-73
2022/03/24 00:51:55;;;;;;;41.42;35.72;;;6.00;99.90;;;;;;5068430;28;20043;-73
2022/03/24 00:54:21;;;;;;;45.78;36.92;;;6.00;99.90;;;;;;5069634;28;20051;-73
2022/03/24 00:56:47;;;;;;;40.95;34.80;;;5.90;99.90;;;;;;5069287;28;20066;-73
2022/03/24 00:59:13;;;;;;;38.53;33.50;;;5.90;99.90;;;;;;5051895;28;20051;-74
2022/03/24 01:01:39;;;;;;;39.20;35.03;;;5.80;99.90;;;;;;5068527;28;20047;-74
2022/03/24 01:04:09;;;;;;;39.95;33.08;;;5.70;99.90;;;;;;5085859;28;20072;-73
2022/03/24 01:06:35;;;;;;;39.22;32.70;;;5.80;99.90;;;;;;5069001;28;20513;-73
2022/03/24 01:09:03;;;;;;;39.85;35.53;;;5.70;99.90;;;;;;5084572;28;20047;-73
2022/03/24 01:11:28;;;;;;;39.15;34.72;;;5.60;99.90;;;;;;5070316;28;20043;-73
2022/03/24 01:13:54;;;;;;;40.60;34.55;;;5.60;99.90;;;;;;5073789;28;20564;-73
2022/03/24 01:16:23;;;;;;;40.70;34.10;;;5.60;99.90;;;;;;5090192;28;20139;-73
2022/03/24 01:18:50;;;;;;;39.47;33.70;;;5.70;99.90;;;;;;5073309;28;20490;-73
2022/03/24 01:21:16;;;;;;;40.95;36.08;;;5.60;99.90;;;;;;5073296;28;20070;-73
2022/03/24 01:23:45;;;;;;;44.33;39.45;;;5.60;99.90;;;;;;5090352;28;20051;-73
2022/03/24 01:26:12;;;;;;;40.78;35.92;;;5.60;99.90;;;;;;5056876;28;20126;-73
2022/03/24 01:28:39;;;;;;;40.15;35.95;;;5.50;99.90;;;;;;5068528;28;20132;-73
2022/03/24 01:31:08;;;;;;;43.88;37.35;;;5.60;99.90;;;;;;5105604;28;20096;-73
2022/03/24 01:33:40;;;;;;;41.50;36.33;;;5.60;99.90;;;;;;5105268;28;20090;-74
2022/03/24 01:36:08;;;;;;;38.88;33.60;;;5.60;99.90;;;;;;5071505;28;20122;-73
2022/03/24 01:38:38;;;;;;;39.25;34.88;;;5.50;99.90;;;;;;5102505;28;20437;-74
2022/03/24 01:41:09;;;;;;;42.25;37.70;;;5.50;99.90;;;;;;5069575;28;20047;-75
2022/03/24 01:43:40;;;;;;;39.17;34.83;;;5.40;99.90;;;;;;5086037;28;20262;-74
2022/03/24 01:46:09;;;;;;;40.47;36.20;;;5.40;99.90;;;;;;5069292;28;20039;-74
2022/03/24 01:48:42;;;;;;;43.63;37.63;;;5.40;99.90;;;;;;5086505;28;20108;-74
2022/03/24 01:51:08;;;;;;;55.28;40.38;;;5.40;99.90;;;;;;5052534;28;20047;-74
2022/03/24 01:53:34;;;;;;;46.10;36.05;;;5.30;99.90;;;;;;5085878;28;20055;-74
2022/03/24 01:56:00;;;;;;;43.55;36.47;;;5.30;99.90;;;;;;5088252;28;20043;-74
2022/03/24 01:58:29;;;;;;;39.70;34.92;;;5.30;99.90;;;;;;5069151;28;20043;-72
2022/03/24 02:01:17;;;;;;;45.05;36.83;;;5.20;99.90;;;;;;5080600;28;20055;-72
2022/03/24 02:03:44;;;;;;;43.03;37.95;;;5.10;99.90;;;;;;5089584;28;20054;-73
2022/03/24 02:06:10;;;;;;;46.25;41.33;;;5.30;99.90;;;;;;5072395;28;20032;-74
2022/03/24 02:08:36;;;;;;;44.63;39.78;;;5.20;99.90;;;;;;5050853;28;20619;-72
2022/03/24 02:11:02;;;;;;;43.97;39.22;;;5.10;99.90;;;;;;5068119;28;20144;-72
2022/03/24 02:13:27;;;;;;;44.72;39.20;;;5.00;99.90;;;;;;5071881;28;20031;-72
2022/03/24 02:15:53;;;;;;;46.13;41.30;;;5.00;99.90;;;;;;5054308;28;20046;-72
2022/03/24 02:18:19;;;;;;;47.22;40.55;;;5.00;99.90;;;;;;5089078;28;20044;-72
2022/03/24 02:20:47;;;;;;;46.78;41.90;;;4.90;99.90;;;;;;5055847;28;20059;-72
2022/03/24 02:23:15;;;;;;;47.85;39.65;;;4.80;99.90;;;;;;5088543;28;20047;-73
2022/03/24 02:25:43;;;;;;;47.60;41.55;;;4.80;99.90;;;;;;5072892;28;20114;-72
2022/03/24 02:28:10;;;;;;;46.58;41.38;;;4.80;99.90;;;;;;5084815;28;20551;-73
2022/03/24 02:30:36;;;;;;;47.83;42.63;;;4.80;99.90;;;;;;5055258;28;20055;-73
2022/03/24 02:33:01;;;;;;;45.63;40.72;;;4.70;99.90;;;;;;5088579;28;20047;-73
2022/03/24 02:35:27;;;;;;;48.63;43.10;;;4.70;99.90;;;;;;5071271;28;20035;-72
2022/03/24 02:37:53;;;;;;;45.65;40.72;;;4.70;99.90;;;;;;5071897;28;20108;-73
2022/03/24 02:40:19;;;;;;;46.88;41.97;;;4.70;99.90;;;;;;5071345;28;20093;-73
2022/03/24 02:42:46;;;;;;;50.17;43.78;;;4.60;99.90;;;;;;5071800;28;20261;-74
2022/03/24 02:45:11;;;;;;;48.55;42.85;;;4.60;99.90;;;;;;5070803;28;20100;-75
2022/03/24 02:47:38;;;;;;;45.38;40.20;;;4.60;99.90;;;;;;5054475;28;20668;-75
2022/03/24 02:50:10;;;;;;;45.92;40.97;;;4.50;99.90;;;;;;5088241;28;20055;-75
2022/03/24 02:52:36;;;;;;;49.67;42.92;;;4.40;99.90;;;;;;5082115;28;20722;-73
2022/03/24 02:55:02;;;;;;;46.63;41.58;;;4.50;99.90;;;;;;5077000;28;20051;-75
2022/03/24 02:57:30;;;;;;;49.00;43.70;;;4.50;99.90;;;;;;5069457;28;20036;-73
2022/03/24 02:59:56;;;;;;;49.80;44.10;;;4.40;99.90;;;;;;5070387;28;20051;-72
2022/03/24 03:02:22;;;;;;;52.55;46.03;;;4.40;99.90;;;;;;5069269;28;20047;-74
2022/03/24 03:04:53;;;;;;;46.08;40.90;;;4.40;99.90;;;;;;5071436;28;20592;-74
2022/03/24 03:07:22;;;;;;;49.25;43.90;;;4.40;99.90;;;;;;5088481;28;20489;-73
2022/03/24 03:09:49;;;;;;;54.83;48.65;;;4.40;99.90;;;;;;5071532;28;20052;-73
2022/03/24 03:12:16;;;;;;;51.60;45.10;;;4.40;99.90;;;;;;5066951;28;20397;-74
2022/03/24 03:14:42;;;;;;;52.17;43.65;;;4.30;99.90;;;;;;5069204;28;20034;-74
2022/03/24 03:17:08;;;;;;;49.88;44.65;;;4.30;99.90;;;;;;5086279;28;20044;-74
2022/03/24 03:19:35;;;;;;;53.40;44.88;;;4.30;99.90;;;;;;5081492;28;20059;-73
2022/03/24 03:22:03;;;;;;;52.70;47.05;;;4.30;99.90;;;;;;5063350;28;20059;-73
2022/03/24 03:24:29;;;;;;;53.50;47.58;;;4.30;99.90;;;;;;5048247;28;20438;-75
2022/03/24 03:26:55;;;;;;;53.45;47.70;;;4.30;99.90;;;;;;5048637;28;20130;-73
2022/03/24 03:29:24;;;;;;;52.60;46.92;;;4.30;99.90;;;;;;5063608;28;20044;-73
2022/03/24 03:31:53;;;;;;;52.63;45.38;;;4.30;99.90;;;;;;5081214;28;20051;-73
2022/03/24 03:34:18;;;;;;;53.38;47.25;;;4.40;99.90;;;;;;5064085;28;20119;-74
2022/03/24 03:36:45;;;;;;;55.30;49.30;;;4.40;99.90;;;;;;5081842;28;20177;-74
2022/03/24 03:39:11;;;;;;;55.35;49.35;;;4.40;99.90;;;;;;5081162;28;20059;-74
2022/03/24 03:41:39;;;;;;;51.13;45.63;;;4.40;99.90;;;;;;5066154;28;20189;-74
2022/03/24 03:44:05;;;;;;;56.20;48.88;;;4.30;99.90;;;;;;5082420;28;20138;-74
2022/03/24 03:46:31;;;;;;;55.88;49.80;;;4.20;99.90;;;;;;5082538;28;20059;-74
2022/03/24 03:48:57;;;;;;;53.70;46.58;;;4.00;99.90;;;;;;5049167;28;20054;-75
2022/03/24 03:51:23;;;;;;;56.03;50.03;;;4.00;99.90;;;;;;5079971;28;20048;-74
2022/03/24 03:53:48;;;;;;;61.55;51.65;;;4.00;99.90;;;;;;5066058;28;20051;-74
2022/03/24 03:56:14;;;;;;;61.30;53.85;;;4.00;99.90;;;;;;5065384;28;20048;-74
2022/03/24 03:58:40;;;;;;;59.90;53.35;;;4.00;99.90;;;;;;5064803;28;20043;-74
2022/03/24 04:01:08;;;;;;;62.08;54.35;;;3.90;99.90;;;;;;5080940;28;20048;-74
2022/03/24 04:03:36;;;;;;;58.08;51.45;;;3.80;99.90;;;;;;5066631;28;20063;-74
2022/03/24 04:06:08;;;;;;;61.08;52.78;;;3.80;99.90;;;;;;5065108;28;20047;-74
2022/03/24 04:08:35;;;;;;;63.28;53.90;;;3.90;99.90;;;;;;5082480;28;20579;-73
2022/03/24 04:11:01;;;;;;;67.43;57.10;;;3.80;99.90;;;;;;5082125;28;20526;-73
2022/03/24 04:13:28;;;;;;;60.17;53.25;;;3.80;99.90;;;;;;5081756;28;20123;-74
2022/03/24 04:15:54;;;;;;;64.40;57.35;;;3.80;99.90;;;;;;5078590;28;20795;-74
2022/03/24 04:18:22;;;;;;;64.72;54.90;;;3.80;99.90;;;;;;5062625;28;20115;-73
2022/03/24 04:20:49;;;;;;;60.25;53.05;;;3.90;99.90;;;;;;5077833;28;20443;-73
2022/03/24 04:23:15;;;;;;;60.78;51.65;;;3.80;99.90;;;;;;5063148;28;20048;-73
2022/03/24 04:25:41;;;;;;;60.08;53.75;;;3.80;99.90;;;;;;5049179;28;20052;-73
2022/03/24 04:28:08;;;;;;;66.30;58.47;;;3.70;99.90;;;;;;5063067;28;20036;-74
2022/03/24 04:30:34;;;;;;;75.72;66.35;;;3.70;99.90;;;;;;5082548;28;20105;-74
2022/03/24 04:33:01;;;;;;;68.68;61.20;;;3.60;99.90;;;;;;5065593;28;20048;-73
2022/03/24 04:35:27;;;;;;;65.25;57.95;;;3.60;99.90;;;;;;5064568;28;20048;-74
2022/03/24 04:37:53;;;;;;;66.45;58.65;;;3.60;99.90;;;;;;5082749;28;20474;-73
2022/03/24 04:40:20;;;;;;;71.35;62.90;;;3.60;99.90;;;;;;5081330;28;20051;-73
2022/03/24 04:42:51;;;;;;;68.50;61.08;;;3.60;99.90;;;;;;5064857;28;20040;-73
2022/03/24 04:45:18;;;;;;;68.50;61.00;;;3.60;99.90;;;;;;5081029;28;20059;-73
2022/03/24 04:47:45;;;;;;;66.53;59.25;;;3.60;99.90;;;;;;5063876;28;20047;-73
2022/03/24 04:50:13;;;;;;;71.45;63.45;;;3.60;99.90;;;;;;5064227;28;20063;-73
2022/03/24 04:52:39;;;;;;;70.55;62.90;;;3.60;99.90;;;;;;5079544;28;20082;-73
2022/03/24 04:55:07;;;;;;;74.68;66.47;;;3.60;99.90;;;;;;5080465;28;20552;-73
2022/03/24 04:57:32;;;;;;;69.50;61.50;;;3.60;99.90;;;;;;5062444;28;20162;-74
2022/03/24 04:59:58;;;;;;;68.17;60.60;;;3.60;99.90;;;;;;5078044;28;20111;-73
2022/03/24 05:02:25;;;;;;;71.22;63.45;;;3.50;99.90;;;;;;5062016;28;20043;-73
2022/03/24 05:04:52;;;;;;;69.93;62.30;;;3.40;99.90;;;;;;5048656;28;20043;-73
2022/03/24 05:07:18;;;;;;;77.30;67.78;;;3.40;99.90;;;;;;5083220;28;20036;-73
2022/03/24 05:09:45;;;;;;;69.50;61.58;;;3.40;99.90;;;;;;5066486;28;20050;-73
2022/03/24 05:12:11;;;;;;;67.93;60.33;;;3.40;99.90;;;;;;5082930;28;20109;-74
2022/03/24 05:14:37;;;;;;;66.10;58.88;;;3.30;99.90;;;;;;5065857;28;20044;-75
2022/03/24 05:17:03;;;;;;;66.60;58.63;;;3.20;99.90;;;;;;5083132;28;20051;-74
2022/03/24 05:19:31;;;;;;;64.70;57.42;;;3.20;99.90;;;;;;5067330;28;20078;-74
2022/03/24 05:21:58;;;;;;;72.40;62.35;;;3.20;99.90;;;;;;5070122;28;20055;-74
2022/03/24 05:24:24;;;;;;;68.55;61.00;;;3.20;99.90;;;;;;5084938;28;20139;-73
2022/03/24 05:26:50;;;;;;;64.57;57.60;;;3.10;99.90;;;;;;5084903;28;20577;-73
2022/03/24 05:29:16;;;;;;;68.63;61.27;;;3.10;99.90;;;;;;5067552;28;20067;-73
2022/03/24 05:31:42;;;;;;;73.40;62.50;;;3.10;99.90;;;;;;5069361;28;20078;-73
2022/03/24 05:34:08;;;;;;;70.37;62.70;;;3.10;99.90;;;;;;5069536;28;20075;-74
2022/03/24 05:36:34;;;;;;;67.73;59.37;;;3.20;99.90;;;;;;5069518;28;20126;-73
2022/03/24 05:39:00;;;;;;;77.20;67.13;;;3.20;99.90;;;;;;5069034;28;20652;-73
2022/03/24 05:41:26;;;;;;;81.97;71.47;;;3.20;99.90;;;;;;5082766;28;20239;-74
2022/03/24 05:44:04;;;;;;;91.93;78.18;;;3.20;99.90;;;;;;5083629;28;20126;-73
2022/03/24 05:46:30;;;;;;;82.17;71.80;;;3.20;99.90;;;;;;5065361;28;20235;-73
2022/03/24 05:48:56;;;;;;;82.70;71.93;;;3.20;99.90;;;;;;5086433;28;20510;-73
2022/03/24 05:51:21;;;;;;;73.33;63.90;;;3.30;99.90;;;;;;5067943;28;20138;-73
2022/03/24 05:53:47;;;;;;;68.43;60.37;;;3.40;99.90;;;;;;5067661;28;20043;-74
2022/03/24 05:56:13;;;;;;;73.93;65.53;;;3.50;99.90;;;;;;5066648;28;20040;-74
2022/03/24 05:58:39;;;;;;;71.23;63.60;;;3.70;99.90;;;;;;5068652;28;20554;-73
2022/03/24 06:01:05;;;;;;;74.17;66.10;;;3.80;99.90;;;;;;5087706;28;20035;-74
2022/03/24 06:03:35;;;;;;;72.80;63.63;;;3.90;99.90;;;;;;5087085;28;20050;-73
2022/03/24 06:06:03;;;;;;;69.97;62.47;;;4.00;99.90;;;;;;5070409;28;20055;-73
2022/03/24 06:08:30;;;;;;;75.17;64.67;;;4.00;99.90;;;;;;5068995;28;20059;-75
2022/03/24 06:10:57;;;;;;;76.43;67.40;;;4.30;99.90;;;;;;5070979;28;20051;-74
2022/03/24 06:13:23;;;;;;;68.97;61.47;;;4.40;99.90;;;;;;5067110;28;20062;-74
2022/03/24 06:15:50;;;;;;;70.90;61.87;;;4.40;99.90;;;;;;5080893;28;20039;-74
2022/03/24 06:18:17;;;;;;;82.53;73.57;;;4.40;99.90;;;;;;5060747;28;20522;-74
2022/03/24 06:20:46;;;;;;;96.70;82.47;;;4.40;99.90;;;;;;5116691;27;20105;-74
2022/03/24 06:23:12;;;;;;;84.57;74.90;;;4.50;99.90;;;;;;5061778;28;20050;-73
2022/03/24 06:25:40;;;;;;;82.10;73.13;;;4.30;99.90;;;;;;5081973;28;20126;-72
2022/03/24 06:28:06;;;;;;;85.87;74.73;;;4.20;99.90;;;;;;5068095;28;20114;-73
2022/03/24 06:30:32;;;;;;;73.57;65.20;;;4.30;99.90;;;;;;5086904;28;20147;-73
2022/03/24 06:32:58;;;;;;;74.20;66.13;;;4.30;99.90;;;;;;5053837;28;20040;-73
2022/03/24 06:35:24;;;;;;;76.47;68.23;;;4.30;99.90;;;;;;5069639;28;20046;-73
2022/03/24 06:37:51;;;;;;;73.07;65.05;;;4.40;99.90;;;;;;5049282;28;20047;-73
2022/03/24 06:40:18;;;;;;;89.80;76.25;;;4.50;99.90;;;;;;5084455;28;20047;-74
2022/03/24 06:42:44;;;;;;;74.43;66.30;;;4.50;99.90;;;;;;5087267;28;20055;-73
2022/03/24 06:45:12;;;;;;;75.05;66.65;;;4.60;99.90;;;;;;5086345;28;20051;-75
2022/03/24 06:47:41;;;;;;;90.32;80.43;;;4.60;99.90;;;;;;5068028;28;20144;-72
2022/03/24 06:50:15;;;;;;;93.53;83.28;;;4.80;99.90;;;;;;5045647;28;20047;-72
2022/03/24 06:52:43;;;;;;;93.03;82.90;;;4.90;99.90;;;;;;5049706;28;20043;-72
2022/03/24 06:55:12;;;;;;;89.47;79.55;;;5.00;99.90;;;;;;5065750;28;20051;-72
2022/03/24 06:57:39;;;;;;;89.57;79.70;;;5.10;99.90;;;;;;5062862;28;20154;-72
2022/03/24 07:00:06;;;;;;;87.85;78.43;;;5.20;99.90;;;;;;5066473;28;20044;-72
2022/03/24 07:02:32;;;;;;;91.53;80.10;;;5.40;99.90;;;;;;5066891;28;20354;-71
2022/03/24 07:04:58;;;;;;;92.15;81.85;;;5.50;99.90;;;;;;5084555;28;20510;-71
2022/03/24 07:07:26;;;;;;;91.72;82.03;;;5.60;99.90;;;;;;5082604;28;20059;-72
2022/03/24 07:09:52;;;;;;;92.70;81.05;;;5.80;99.90;;;;;;5064176;28;20086;-71
2022/03/24 07:12:22;;;;;;;87.20;77.90;;;6.00;99.90;;;;;;5083603;28;20083;-72
2022/03/24 07:14:48;;;;;;;90.55;80.88;;;6.20;99.90;;;;;;5095214;28;20108;-72
2022/03/24 07:17:14;;;;;;;89.90;80.10;;;6.40;99.90;;;;;;5100856;28;20039;-73
2022/03/24 07:19:40;;;;;;;86.57;77.10;;;6.50;99.90;;;;;;5077258;28;20155;-72
2022/03/24 07:22:06;;;;;;;87.63;77.72;;;6.70;99.90;;;;;;5064601;28;20138;-72
2022/03/24 07:24:32;;;;;;;86.22;76.93;;;6.90;99.90;;;;;;5082290;28;20044;-73
2022/03/24 07:26:58;;;;;;;83.13;73.80;;;7.10;99.90;;;;;;5049116;28;20031;-73
2022/03/24 07:29:24;;;;;;;85.55;76.18;;;7.40;99.90;;;;;;5119682;27;20481;-71
2022/03/24 07:31:50;;;;;;;82.97;73.22;;;7.40;99.90;;;;;;5053160;28;20047;-72
2022/03/24 07:34:16;;;;;;;82.25;71.35;;;7.60;99.90;;;;;;5086007;28;20438;-71
2022/03/24 07:36:43;;;;;;;75.40;66.97;;;7.80;99.90;;;;;;5078791;28;20343;-72
2022/03/24 07:39:09;;;;;;;72.03;64.18;;;8.00;99.90;;;;;;5086235;28;20035;-72
2022/03/24 07:41:35;;;;;;;70.47;61.58;;;8.20;99.90;;;;;;5080752;28;20050;-72
2022/03/24 07:44:01;;;;;;;71.43;61.30;;;8.30;99.90;;;;;;5067183;28;20036;-72
2022/03/24 07:46:27;;;;;;;69.03;59.92;;;8.60;99.90;;;;;;5095561;28;20123;-72
2022/03/24 07:48:53;;;;;;;65.85;56.40;;;8.80;99.90;;;;;;5065625;28;20126;-72
2022/03/24 07:51:20;;;;;;;65.93;54.38;;;9.00;99.90;;;;;;5083323;28;20457;-72
2022/03/24 07:53:48;;;;;;;65.57;56.35;;;9.20;99.90;;;;;;5082820;28;20254;-72
2022/03/24 07:56:16;;;;;;;62.60;55.63;;;9.40;99.90;;;;;;5113376;27;20044;-72
2022/03/24 07:58:41;;;;;;;60.42;53.20;;;9.50;99.90;;;;;;5065725;28;20119;-73
2022/03/24 08:01:08;;;;;;;61.42;52.03;;;9.70;99.90;;;;;;5079419;28;20130;-72
2022/03/24 08:03:34;;;;;;;66.40;55.08;;;10.00;99.90;;;;;;5065395;28;20399;-72
2022/03/24 08:06:02;;;;;;;60.25;53.00;;;10.20;99.90;;;;;;5082450;28;20096;-72
2022/03/24 08:08:28;;;;;;;57.00;50.13;;;10.50;99.90;;;;;;5082819;28;20184;-72
2022/03/24 08:10:54;;;;;;;61.60;50.13;;;10.70;99.90;;;;;;5084858;28;20040;-72
2022/03/24 08:13:21;;;;;;;54.58;47.10;;;11.00;99.90;;;;;;5068461;28;20043;-72
2022/03/24 08:15:48;;;;;;;56.47;49.47;;;11.20;99.90;;;;;;5064724;28;20040;-72
2022/03/24 08:18:15;;;;;;;60.13;49.35;;;11.50;99.90;;;;;;5083363;28;20043;-72
2022/03/24 08:20:42;;;;;;;62.88;49.78;;;11.70;99.90;;;;;;5065552;28;20071;-73
2022/03/24 08:23:10;;;;;;;55.55;46.00;;;11.90;99.90;;;;;;5085067;28;20111;-72
2022/03/24 08:25:36;;;;;;;53.00;43.00;;;12.10;99.90;;;;;;5079662;28;20055;-72
2022/03/24 08:28:02;;;;;;;52.13;40.63;;;12.30;99.90;;;;;;5081985;28;20247;-72
2022/03/24 08:30:29;;;;;;;49.17;39.03;;;12.50;99.90;;;;;;5051381;28;20126;-72
2022/03/24 08:32:55;;;;;;;49.58;41.08;;;12.60;99.60;;;;;;5069140;28;20126;-72
2022/03/24 08:35:21;;;;;;;51.33;40.05;;;12.70;99.40;;;;;;5066791;28;20122;-75
2022/03/24 08:37:47;;;;;;;51.35;40.28;;;12.90;98.90;;;;;;5063414;28;20493;-75
2022/03/24 08:40:13;;;;;;;51.90;39.25;;;13.00;97.10;;;;;;5084181;28;20040;-75
2022/03/24 08:42:40;;;;;;;52.42;38.97;;;13.20;96.00;;;;;;5082043;28;20043;-76
2022/03/24 08:45:11;;;;;;;46.42;33.97;;;13.30;94.80;;;;;;5116471;27;20043;-76
2022/03/24 08:47:38;;;;;;;46.45;34.40;;;13.50;94.20;;;;;;5076884;28;20040;-75
2022/03/24 08:50:06;;;;;;;46.90;33.67;;;13.60;92.00;;;;;;5098467;28;20043;-75
2022/03/24 08:52:32;;;;;;;46.00;33.50;;;13.70;88.50;;;;;;5081815;28;20545;-76
2022/03/24 08:54:57;;;;;;;45.85;35.08;;;13.70;87.90;;;;;;5100482;28;20123;-75
2022/03/24 08:57:27;;;;;;;49.10;36.38;;;13.80;88.00;;;;;;5070980;28;20490;-76
2022/03/24 09:00:00;;;;;;;48.63;36.00;;;13.80;86.70;;;;;;5082391;28;20044;-75
2022/03/24 09:02:27;;;;;;;44.60;35.22;;;13.90;87.30;;;;;;5099750;28;20514;-75
2022/03/24 09:04:53;;;;;;;48.30;36.67;;;13.90;88.10;;;;;;5079887;28;20510;-75
2022/03/24 09:07:19;;;;;;;48.60;36.20;;;14.00;88.70;;;;;;5076026;28;20516;-75
2022/03/24 09:09:45;;;;;;;45.22;36.05;;;14.10;88.30;;;;;;5081079;28;20048;-75
2022/03/24 09:12:11;;;;;;;48.45;36.60;;;14.10;88.50;;;;;;5061369;28;20083;-76
2022/03/24 09:14:39;;;;;;;45.47;36.17;;;14.30;90.00;;;;;;5097420;28;20126;-76
2022/03/24 09:17:05;;;;;;;48.38;38.00;;;14.30;86.20;;;;;;5048129;28;20040;-77
2022/03/24 09:19:32;;;;;;;45.20;36.75;;;14.40;87.30;;;;;;5076764;28;20047;-75
2022/03/24 09:21:59;;;;;;;47.83;38.20;;;14.50;88.10;;;;;;5100164;28;20681;-75
2022/03/24 09:24:26;;;;;;;49.40;38.00;;;14.60;87.80;;;;;;5066919;28;20052;-75
2022/03/24 09:26:53;;;;;;;52.88;38.88;;;14.70;85.40;;;;;;5066148;28;20062;-75
2022/03/24 09:29:19;;;;;;;48.83;37.50;;;14.90;85.90;;;;;;5082223;28;20510;-75
2022/03/24 09:31:47;;;;;;;51.58;38.50;;;15.00;85.30;;;;;;5047144;28;20078;-75
2022/03/24 09:34:13;;;;;;;45.42;35.70;;;15.10;82.50;;;;;;5078353;28;20048;-75
2022/03/24 09:36:39;;;;;;;51.30;38.88;;;15.30;84.30;;;;;;5075647;28;20518;-75
2022/03/24 09:39:07;;;;;;;44.83;38.35;;;15.50;83.40;;;;;;5100062;28;20758;-74
2022/03/24 09:41:35;;;;;;;48.53;37.03;;;15.60;83.30;;;;;;5068249;28;20053;-75
2022/03/24 09:44:01;;;;;;;47.00;35.42;;;15.80;82.00;;;;;;5068134;28;20040;-75
2022/03/24 09:46:28;;;;;;;50.25;37.33;;;16.00;80.00;;;;;;5083903;28;20128;-75
2022/03/24 09:48:55;;;;;;;45.53;35.33;;;16.00;76.30;;;;;;5068658;28;20112;-75
2022/03/24 09:51:29;;;;;;;50.03;35.92;;;16.10;72.70;;;;;;5066456;28;20082;-72
2022/03/24 09:53:55;;;;;;;47.53;34.72;;;16.20;67.90;;;;;;5080531;28;20043;-72
2022/03/24 09:56:21;;;;;;;45.05;33.13;;;16.20;68.10;;;;;;5079652;28;20074;-72
2022/03/24 09:58:50;;;;;;;44.78;33.50;;;16.30;68.00;;;;;;5081548;28;20046;-72
2022/03/24 10:01:17;;;;;;;44.57;33.63;;;16.30;65.70;;;;;;5096385;28;20047;-72
2022/03/24 10:04:07;;;;;;;45.72;33.63;;;16.40;65.80;;;;;;5064877;28;20536;-72
2022/03/24 10:06:34;;;;;;;44.05;34.60;;;16.40;64.30;;;;;;5097699;28;20060;-72
2022/03/24 10:09:00;;;;;;;40.45;31.35;;;16.50;63.60;;;;;;5048684;28;20348;-72
2022/03/24 10:11:26;;;;;;;48.30;31.98;;;16.60;63.00;;;;;;5066267;28;20047;-72
2022/03/24 10:13:58;;;;;;;45.33;33.13;;;16.70;61.90;;;;;;5116536;27;20044;-71
2022/03/24 10:16:33;;;;;;;43.65;31.48;;;16.70;62.10;;;;;;5066363;28;20112;-73
2022/03/24 10:19:16;;;;;;;41.30;30.77;;;16.90;61.20;;;;;;5068992;28;20101;-71
2022/03/24 10:21:47;;;;;;;42.95;30.10;;;17.00;60.20;;;;;;5085751;28;20051;-73
2022/03/24 10:24:21;;;;;;;42.67;28.23;;;17.10;59.40;;;;;;5070935;28;20131;-71
2022/03/24 10:26:49;;;;;;;40.58;28.40;;;17.20;57.10;;;;;;5111146;27;20126;-72
2022/03/24 10:29:19;;;;;;;41.85;29.15;;;17.20;58.00;;;;;;5062184;28;20048;-72
2022/03/24 10:31:50;;;;;;;40.75;30.08;;;17.30;57.20;;;;;;5080341;28;20465;-72
2022/03/24 10:34:26;;;;;;;37.85;28.23;;;17.30;56.90;;;;;;5080431;28;20146;-72
2022/03/24 10:36:51;;;;;;;34.22;26.23;;;17.40;55.60;;;;;;5064821;28;20118;-71
2022/03/24 10:39:24;;;;;;;39.13;29.38;;;17.40;54.70;;;;;;5062029;28;20363;-72
2022/03/24 10:41:49;;;;;;;39.17;28.17;;;17.50;54.80;;;;;;5097271;28;20048;-72
2022/03/24 10:44:15;;;;;;;37.72;26.55;;;17.50;53.60;;;;;;5077395;28;20375;-72
2022/03/24 10:46:44;;;;;;;38.25;28.65;;;17.50;53.50;;;;;;5065860;28;20096;-72
2022/03/24 10:49:23;;;;;;;38.95;28.70;;;17.60;53.30;;;;;;5062508;28;20101;-71
2022/03/24 10:51:50;;;;;;;37.83;26.23;;;17.60;52.90;;;;;;5117946;27;20054;-71
2022/03/24 10:54:35;;;;;;;35.70;27.25;;;17.70;53.60;;;;;;5081384;28;20079;-72
2022/03/24 10:57:06;;;;;;;33.00;25.98;;;17.70;51.30;;;;;;5081119;28;20409;-71
2022/03/24 10:59:54;;;;;;;35.80;25.90;;;17.80;52.20;;;;;;5083782;28;20047;-71
2022/03/24 11:02:22;;;;;;;33.92;26.45;;;17.90;51.40;;;;;;5084474;28;20136;-71
2022/03/24 11:04:48;;;;;;;35.10;25.02;;;18.00;52.00;;;;;;5084978;28;20494;-71
2022/03/24 11:07:27;;;;;;;35.78;25.98;;;18.10;51.50;;;;;;5068600;28;20043;-72
2022/03/24 11:09:53;;;;;;;29.77;20.95;;;18.20;51.00;;;;;;5085751;28;20047;-74
2022/03/24 11:12:33;;;;;;;30.50;21.60;;;18.20;50.20;;;;;;5086036;28;20047;-74
2022/03/24 11:15:01;;;;;;;29.10;21.90;;;18.30;49.10;;;;;;5084571;28;20238;-74
2022/03/24 11:17:31;;;;;;;30.30;23.10;;;18.40;48.90;;;;;;5068397;28;20403;-74
2022/03/24 11:20:04;;;;;;;;;;;18.50;48.40;;;;;;5120259;27;20108;-74
2022/03/24 11:22:42;;;;;;;32.42;22.13;;;18.50;48.00;;;;;;5085641;28;19966;-73
2022/03/24 11:25:09;;;;;;;34.22;21.52;;;18.40;47.70;;;;;;5069532;28;20074;-74
2022/03/24 11:27:35;;;;;;;31.77;20.05;;;18.50;47.90;;;;;;5066756;28;20510;-75
2022/03/24 11:30:03;;;;;;;28.75;21.23;;;18.60;47.50;;;;;;5084945;28;20187;-74
2022/03/24 11:32:29;;;;;;;30.77;21.75;;;18.70;47.70;;;;;;5078474;28;20058;-75
2022/03/24 11:34:58;;;;;;;32.30;20.30;;;18.80;47.50;;;;;;5082551;28;20047;-74
2022/03/24 11:37:24;;;;;;;27.48;16.05;;;18.90;47.30;;;;;;5068358;28;20044;-72
2022/03/24 11:40:24;;;;;;;28.02;19.02;;;18.90;45.60;;;;;;5080489;28;20074;-72
2022/03/24 11:42:54;;;;;;;26.45;15.98;;;19.00;46.00;;;;;;5070758;28;20067;-72
2022/03/24 11:45:28;;;;;;;28.55;18.67;;;19.00;44.50;;;;;;5119130;27;20126;-73
2022/03/24 11:48:05;;;;;;;28.42;18.20;;;18.90;45.30;;;;;;5056864;28;20046;-74
2022/03/24 11:50:49;;;;;;;28.75;18.55;;;18.90;45.20;;;;;;5097627;28;20066;-73
2022/03/24 11:53:38;;;;;;;28.20;18.83;;;18.80;43.80;;;;;;5079052;28;20050;-73
2022/03/24 11:56:04;;;;;;;26.35;18.00;;;18.80;45.10;;;;;;5081194;28;20536;-73
2022/03/24 11:59:08;;;;;;;23.40;16.48;;;18.80;46.10;;;;;;5081685;28;20051;-73
2022/03/24 12:01:35;;;;;;;27.05;16.67;;;18.80;45.60;;;;;;5066058;28;20158;-73
2022/03/24 12:04:04;;;;;;;25.45;17.77;;;18.80;46.30;;;;;;5096784;28;20043;-72
2022/03/24 12:06:43;;;;;;;27.38;16.08;;;18.90;46.70;;;;;;5067770;28;20090;-73
2022/03/24 12:09:14;;;;;;;27.85;21.05;;;18.90;46.70;;;;;;5084480;28;20055;-73
2022/03/24 12:11:44;;;;;;;26.05;18.38;;;19.00;46.50;;;;;;5080873;28;20147;-73
2022/03/24 12:14:16;;;;;;;24.48;18.00;;;19.20;46.70;;;;;;5084204;28;20144;-74
2022/03/24 12:16:45;;;;;;;22.48;17.70;;;19.20;47.20;;;;;;5066878;28;20052;-73
2022/03/24 12:19:50;;;;;;;25.27;18.77;;;19.10;48.10;;;;;;5084402;28;20046;-73
2022/03/24 12:22:32;;;;;;;26.20;18.35;;;19.00;48.10;;;;;;5100663;28;20404;-73
2022/03/24 12:25:01;;;;;;;28.75;21.95;;;19.10;48.70;;;;;;5068236;28;20082;-73
2022/03/24 12:27:28;;;;;;;29.98;21.98;;;19.20;46.60;;;;;;5102635;28;20046;-73
2022/03/24 12:30:14;;;;;;;31.23;22.50;;;19.30;46.70;;;;;;5086900;28;20062;-74
2022/03/24 12:32:42;;;;;;;26.52;20.13;;;19.20;47.10;;;;;;5114496;27;20040;-73
2022/03/24 12:35:09;;;;;;;27.65;20.58;;;19.20;47.10;;;;;;5064688;28;20086;-73
2022/03/24 12:37:35;;;;;;;30.15;20.00;;;19.30;47.60;;;;;;5063867;28;20502;-73